sensor_id;sensor_type;location;lat;lon;timestamp;P1;durP1;ratioP1;P2;durP2;ratioP2
64295;SDS011;51082;38.236;15.432;2023-06-19T00:00:55;0.70;;;0.70;;
64295;SDS011;51082;38.236;15.432;2023-06-19T00:01:57;0.95;;;0.68;;
64295;SDS011;51082;38.236;15.432;2023-06-19T00:03:09;1.48;;;1.13;;
64295;SDS011;51082;38.236;15.432;2023-06-19T00:04:11;0.40;;;0.40;;
64295;SDS011;51082;38.236;15.432;2023-06-19T00:05:14;1.98;;;1.20;;
64295;SDS011;51082;38.236;15.432;2023-06-19T00:06:21;0.77;;;0.77;;
64295;SDS011;51082;38.236;15.432;2023-06-19T00:07:26;1.52;;;0.85;;
64295;SDS011;51082;38.236;15.432;2023-06-19T00:08:27;0.63;;;0.40;;
64295;SDS011;51082;38.236;15.432;2023-06-19T00:09:32;0.82;;;0.73;;
64295;SDS011;51082;38.236;15.432;2023-06-19T00:10:37;1.55;;;0.57;;
64295;SDS011;51082;38.236;15.432;2023-06-19T00:11:41;0.77;;;0.77;;
64295;SDS011;51082;38.236;15.432;2023-06-19T00:12:43;1.20;;;0.88;;
64295;SDS011;51082;38.236;15.432;2023-06-19T00:13:50;1.38;;;1.20;;
64295;SDS011;51082;38.236;15.432;2023-06-19T00:14:51;0.30;;;0.30;;
64295;SDS011;51082;38.236;15.432;2023-06-19T00:15:54;0.82;;;0.82;;
64295;SDS011;51082;38.236;15.432;2023-06-19T00:17:01;0.50;;;0.50;;
64295;SDS011;51082;38.236;15.432;2023-06-19T00:18:07;0.80;;;0.73;;
64295;SDS011;51082;38.236;15.432;2023-06-19T00:19:12;0.80;;;0.80;;
64295;SDS011;51082;38.236;15.432;2023-06-19T00:20:14;0.90;;;0.77;;
64295;SDS011;51082;38.236;15.432;2023-06-19T00:21:18;0.43;;;0.40;;
64295;SDS011;51082;38.236;15.432;2023-06-19T00:22:26;0.50;;;0.50;;
64295;SDS011;51082;38.236;15.432;2023-06-19T00:23:30;0.57;;;0.52;;
64295;SDS011;51082;38.236;15.432;2023-06-19T00:24:33;1.10;;;0.70;;
64295;SDS011;51082;38.236;15.432;2023-06-19T00:25:35;2.80;;;0.70;;
64295;SDS011;51082;38.236;15.432;2023-06-19T00:26:40;1.75;;;0.95;;
64295;SDS011;51082;38.236;15.432;2023-06-19T00:27:43;0.40;;;0.40;;
64295;SDS011;51082;38.236;15.432;2023-06-19T00:28:52;1.08;;;0.70;;
64295;SDS011;51082;38.236;15.432;2023-06-19T00:29:56;0.63;;;0.63;;
64295;SDS011;51082;38.236;15.432;2023-06-19T00:31:04;0.52;;;0.52;;
64295;SDS011;51082;38.236;15.432;2023-06-19T00:32:07;3.22;;;0.73;;
64295;SDS011;51082;38.236;15.432;2023-06-19T00:33:13;1.25;;;0.80;;
64295;SDS011;51082;38.236;15.432;2023-06-19T00:34:17;2.25;;;0.68;;
64295;SDS011;51082;38.236;15.432;2023-06-19T00:35:20;0.50;;;0.50;;
64295;SDS011;51082;38.236;15.432;2023-06-19T00:36:22;0.60;;;0.60;;
64295;SDS011;51082;38.236;15.432;2023-06-19T00:37:29;0.90;;;0.80;;
64295;SDS011;51082;38.236;15.432;2023-06-19T00:38:32;1.00;;;0.93;;
64295;SDS011;51082;38.236;15.432;2023-06-19T00:39:40;3.25;;;1.10;;
64295;SDS011;51082;38.236;15.432;2023-06-19T00:40:44;1.20;;;1.05;;
64295;SDS011;51082;38.236;15.432;2023-06-19T00:41:49;0.73;;;0.73;;
64295;SDS011;51082;38.236;15.432;2023-06-19T00:42:55;0.70;;;0.70;;
64295;SDS011;51082;38.236;15.432;2023-06-19T00:43:58;1.55;;;0.70;;
64295;SDS011;51082;38.236;15.432;2023-06-19T00:44:59;1.02;;;0.82;;
64295;SDS011;51082;38.236;15.432;2023-06-19T00:46:02;1.10;;;1.00;;
64295;SDS011;51082;38.236;15.432;2023-06-19T00:47:04;1.10;;;1.00;;
64295;SDS011;51082;38.236;15.432;2023-06-19T00:48:08;0.68;;;0.65;;
64295;SDS011;51082;38.236;15.432;2023-06-19T00:49:16;1.88;;;0.68;;
64295;SDS011;51082;38.236;15.432;2023-06-19T00:50:19;0.80;;;0.77;;
64295;SDS011;51082;38.236;15.432;2023-06-19T00:51:26;0.98;;;0.70;;
64295;SDS011;51082;38.236;15.432;2023-06-19T00:52:34;1.40;;;1.25;;
64295;SDS011;51082;38.236;15.432;2023-06-19T00:53:39;0.40;;;0.40;;
64295;SDS011;51082;38.236;15.432;2023-06-19T00:54:55;0.98;;;0.85;;
64295;SDS011;51082;38.236;15.432;2023-06-19T00:55:59;0.60;;;0.60;;
64295;SDS011;51082;38.236;15.432;2023-06-19T00:57:10;1.80;;;0.90;;
64295;SDS011;51082;38.236;15.432;2023-06-19T00:58:11;0.98;;;0.65;;
64295;SDS011;51082;38.236;15.432;2023-06-19T00:59:20;2.10;;;0.70;;
64295;SDS011;51082;38.236;15.432;2023-06-19T01:00:26;0.70;;;0.70;;
64295;SDS011;51082;38.236;15.432;2023-06-19T01:01:29;1.42;;;0.90;;
64295;SDS011;51082;38.236;15.432;2023-06-19T01:02:36;1.30;;;0.90;;
64295;SDS011;51082;38.236;15.432;2023-06-19T01:03:41;2.95;;;0.73;;
64295;SDS011;51082;38.236;15.432;2023-06-19T01:04:48;1.80;;;0.80;;
64295;SDS011;51082;38.236;15.432;2023-06-19T01:05:53;0.43;;;0.43;;
64295;SDS011;51082;38.236;15.432;2023-06-19T01:06:56;2.05;;;1.17;;
64295;SDS011;51082;38.236;15.432;2023-06-19T01:08:14;1.15;;;0.90;;
64295;SDS011;51082;38.236;15.432;2023-06-19T01:09:31;0.52;;;0.52;;
64295;SDS011;51082;38.236;15.432;2023-06-19T01:10:46;0.68;;;0.60;;
64295;SDS011;51082;38.236;15.432;2023-06-19T01:11:55;0.65;;;0.65;;
64295;SDS011;51082;38.236;15.432;2023-06-19T01:13:10;0.50;;;0.50;;
64295;SDS011;51082;38.236;15.432;2023-06-19T01:14:22;0.63;;;0.60;;
64295;SDS011;51082;38.236;15.432;2023-06-19T01:15:30;0.88;;;0.82;;
64295;SDS011;51082;38.236;15.432;2023-06-19T01:16:33;1.20;;;1.10;;
64295;SDS011;51082;38.236;15.432;2023-06-19T01:17:37;0.80;;;0.80;;
64295;SDS011;51082;38.236;15.432;2023-06-19T01:18:39;0.93;;;0.85;;
64295;SDS011;51082;38.236;15.432;2023-06-19T01:19:43;1.15;;;1.00;;
64295;SDS011;51082;38.236;15.432;2023-06-19T01:20:47;7.38;;;0.80;;
64295;SDS011;51082;38.236;15.432;2023-06-19T01:21:51;0.85;;;0.80;;
64295;SDS011;51082;38.236;15.432;2023-06-19T01:23:06;0.68;;;0.68;;
64295;SDS011;51082;38.236;15.432;2023-06-19T01:24:12;0.90;;;0.68;;
64295;SDS011;51082;38.236;15.432;2023-06-19T01:25:26;0.80;;;0.80;;
64295;SDS011;51082;38.236;15.432;2023-06-19T01:26:29;0.50;;;0.50;;
64295;SDS011;51082;38.236;15.432;2023-06-19T01:27:30;0.43;;;0.43;;
64295;SDS011;51082;38.236;15.432;2023-06-19T01:28:42;2.10;;;1.00;;
64295;SDS011;51082;38.236;15.432;2023-06-19T01:29:46;0.98;;;0.75;;
64295;SDS011;51082;38.236;15.432;2023-06-19T01:31:12;1.35;;;0.85;;
64295;SDS011;51082;38.236;15.432;2023-06-19T01:32:18;0.52;;;0.52;;
64295;SDS011;51082;38.236;15.432;2023-06-19T01:33:27;0.55;;;0.55;;
64295;SDS011;51082;38.236;15.432;2023-06-19T01:34:33;1.00;;;0.93;;
64295;SDS011;51082;38.236;15.432;2023-06-19T01:35:39;0.47;;;0.47;;
64295;SDS011;51082;38.236;15.432;2023-06-19T01:36:47;1.15;;;0.88;;
64295;SDS011;51082;38.236;15.432;2023-06-19T01:37:53;0.68;;;0.68;;
64295;SDS011;51082;38.236;15.432;2023-06-19T01:39:00;1.23;;;0.60;;
64295;SDS011;51082;38.236;15.432;2023-06-19T01:40:10;0.80;;;0.80;;
64295;SDS011;51082;38.236;15.432;2023-06-19T01:41:17;0.77;;;0.47;;
64295;SDS011;51082;38.236;15.432;2023-06-19T01:42:22;0.93;;;0.88;;
64295;SDS011;51082;38.236;15.432;2023-06-19T01:43:42;0.50;;;0.50;;
64295;SDS011;51082;38.236;15.432;2023-06-19T01:44:45;0.65;;;0.55;;
64295;SDS011;51082;38.236;15.432;2023-06-19T01:45:49;0.50;;;0.50;;
64295;SDS011;51082;38.236;15.432;2023-06-19T01:46:56;4.65;;;1.05;;
64295;SDS011;51082;38.236;15.432;2023-06-19T01:48:03;0.75;;;0.75;;
64295;SDS011;51082;38.236;15.432;2023-06-19T01:49:06;1.45;;;0.98;;
64295;SDS011;51082;38.236;15.432;2023-06-19T01:50:11;1.85;;;1.23;;
64295;SDS011;51082;38.236;15.432;2023-06-19T01:51:19;0.93;;;0.80;;
64295;SDS011;51082;38.236;15.432;2023-06-19T01:52:23;0.77;;;0.77;;
64295;SDS011;51082;38.236;15.432;2023-06-19T01:53:26;0.68;;;0.68;;
64295;SDS011;51082;38.236;15.432;2023-06-19T01:54:39;1.05;;;0.80;;
64295;SDS011;51082;38.236;15.432;2023-06-19T01:55:42;0.75;;;0.70;;
64295;SDS011;51082;38.236;15.432;2023-06-19T01:56:47;0.77;;;0.77;;
64295;SDS011;51082;38.236;15.432;2023-06-19T01:57:51;4.90;;;0.70;;
64295;SDS011;51082;38.236;15.432;2023-06-19T01:58:53;2.80;;;1.00;;
64295;SDS011;51082;38.236;15.432;2023-06-19T02:00:02;1.25;;;1.00;;
64295;SDS011;51082;38.236;15.432;2023-06-19T02:01:06;0.30;;;0.25;;
64295;SDS011;51082;38.236;15.432;2023-06-19T02:02:14;0.60;;;0.60;;
64295;SDS011;51082;38.236;15.432;2023-06-19T02:03:16;1.05;;;0.98;;
64295;SDS011;51082;38.236;15.432;2023-06-19T02:04:19;0.30;;;0.30;;
64295;SDS011;51082;38.236;15.432;2023-06-19T02:05:23;1.67;;;1.50;;
64295;SDS011;51082;38.236;15.432;2023-06-19T02:06:34;0.57;;;0.57;;
64295;SDS011;51082;38.236;15.432;2023-06-19T02:07:41;0.65;;;0.65;;
64295;SDS011;51082;38.236;15.432;2023-06-19T02:08:44;1.10;;;0.90;;
64295;SDS011;51082;38.236;15.432;2023-06-19T02:09:50;0.98;;;0.93;;
64295;SDS011;51082;38.236;15.432;2023-06-19T02:10:54;1.65;;;0.65;;
64295;SDS011;51082;38.236;15.432;2023-06-19T02:11:55;0.50;;;0.50;;
64295;SDS011;51082;38.236;15.432;2023-06-19T02:13:01;0.55;;;0.55;;
64295;SDS011;51082;38.236;15.432;2023-06-19T02:14:03;2.15;;;1.23;;
64295;SDS011;51082;38.236;15.432;2023-06-19T02:15:06;0.98;;;0.77;;
64295;SDS011;51082;38.236;15.432;2023-06-19T02:16:09;2.15;;;0.60;;
64295;SDS011;51082;38.236;15.432;2023-06-19T02:17:12;0.35;;;0.35;;
64295;SDS011;51082;38.236;15.432;2023-06-19T02:18:15;1.73;;;0.77;;
64295;SDS011;51082;38.236;15.432;2023-06-19T02:19:18;0.88;;;0.75;;
64295;SDS011;51082;38.236;15.432;2023-06-19T02:20:20;0.45;;;0.45;;
64295;SDS011;51082;38.236;15.432;2023-06-19T02:21:23;0.40;;;0.40;;
64295;SDS011;51082;38.236;15.432;2023-06-19T02:22:30;0.90;;;0.82;;
64295;SDS011;51082;38.236;15.432;2023-06-19T02:23:35;0.73;;;0.70;;
64295;SDS011;51082;38.236;15.432;2023-06-19T02:24:37;0.38;;;0.38;;
64295;SDS011;51082;38.236;15.432;2023-06-19T02:25:43;0.47;;;0.47;;
64295;SDS011;51082;38.236;15.432;2023-06-19T02:26:48;0.40;;;0.32;;
64295;SDS011;51082;38.236;15.432;2023-06-19T02:27:51;0.63;;;0.63;;
64295;SDS011;51082;38.236;15.432;2023-06-19T02:28:52;1.05;;;0.75;;
64295;SDS011;51082;38.236;15.432;2023-06-19T02:30:00;0.70;;;0.50;;
64295;SDS011;51082;38.236;15.432;2023-06-19T02:31:04;0.90;;;0.75;;
64295;SDS011;51082;38.236;15.432;2023-06-19T02:32:07;0.47;;;0.38;;
64295;SDS011;51082;38.236;15.432;2023-06-19T02:33:18;0.55;;;0.52;;
64295;SDS011;51082;38.236;15.432;2023-06-19T02:34:23;0.32;;;0.32;;
64295;SDS011;51082;38.236;15.432;2023-06-19T02:35:25;2.30;;;0.55;;
64295;SDS011;51082;38.236;15.432;2023-06-19T02:36:31;1.10;;;0.47;;
64295;SDS011;51082;38.236;15.432;2023-06-19T02:37:32;0.60;;;0.60;;
64295;SDS011;51082;38.236;15.432;2023-06-19T02:38:39;1.50;;;1.05;;
64295;SDS011;51082;38.236;15.432;2023-06-19T02:39:42;0.57;;;0.50;;
64295;SDS011;51082;38.236;15.432;2023-06-19T02:40:48;0.57;;;0.57;;
64295;SDS011;51082;38.236;15.432;2023-06-19T02:42:01;0.52;;;0.22;;
64295;SDS011;51082;38.236;15.432;2023-06-19T02:43:16;0.77;;;0.73;;
64295;SDS011;51082;38.236;15.432;2023-06-19T02:44:24;1.05;;;0.93;;
64295;SDS011;51082;38.236;15.432;2023-06-19T02:45:30;0.88;;;0.88;;
64295;SDS011;51082;38.236;15.432;2023-06-19T02:46:34;0.73;;;0.73;;
64295;SDS011;51082;38.236;15.432;2023-06-19T02:47:37;0.70;;;0.32;;
64295;SDS011;51082;38.236;15.432;2023-06-19T02:48:39;0.45;;;0.43;;
64295;SDS011;51082;38.236;15.432;2023-06-19T02:49:42;0.40;;;0.40;;
64295;SDS011;51082;38.236;15.432;2023-06-19T02:50:47;18.90;;;1.27;;
64295;SDS011;51082;38.236;15.432;2023-06-19T02:51:49;1.85;;;0.50;;
64295;SDS011;51082;38.236;15.432;2023-06-19T02:52:51;0.65;;;0.63;;
64295;SDS011;51082;38.236;15.432;2023-06-19T02:53:54;0.35;;;0.30;;
64295;SDS011;51082;38.236;15.432;2023-06-19T02:54:57;1.15;;;1.08;;
64295;SDS011;51082;38.236;15.432;2023-06-19T02:56:02;2.50;;;1.17;;
64295;SDS011;51082;38.236;15.432;2023-06-19T02:57:08;1.40;;;0.68;;
64295;SDS011;51082;38.236;15.432;2023-06-19T02:58:11;1.05;;;0.68;;
64295;SDS011;51082;38.236;15.432;2023-06-19T02:59:13;0.38;;;0.35;;
64295;SDS011;51082;38.236;15.432;2023-06-19T03:00:15;2.20;;;0.70;;
64295;SDS011;51082;38.236;15.432;2023-06-19T03:01:18;1.08;;;0.65;;
64295;SDS011;51082;38.236;15.432;2023-06-19T03:02:23;1.08;;;0.82;;
64295;SDS011;51082;38.236;15.432;2023-06-19T03:03:25;0.63;;;0.57;;
64295;SDS011;51082;38.236;15.432;2023-06-19T03:04:28;1.02;;;0.93;;
64295;SDS011;51082;38.236;15.432;2023-06-19T03:05:32;0.60;;;0.55;;
64295;SDS011;51082;38.236;15.432;2023-06-19T03:06:40;3.10;;;0.35;;
64295;SDS011;51082;38.236;15.432;2023-06-19T03:07:46;0.50;;;0.50;;
64295;SDS011;51082;38.236;15.432;2023-06-19T03:08:49;1.10;;;0.82;;
64295;SDS011;51082;38.236;15.432;2023-06-19T03:09:53;0.80;;;0.77;;
64295;SDS011;51082;38.236;15.432;2023-06-19T03:10:57;0.60;;;0.57;;
64295;SDS011;51082;38.236;15.432;2023-06-19T03:12:06;1.70;;;1.13;;
64295;SDS011;51082;38.236;15.432;2023-06-19T03:13:17;1.20;;;0.95;;
64295;SDS011;51082;38.236;15.432;2023-06-19T03:14:19;0.80;;;0.80;;
64295;SDS011;51082;38.236;15.432;2023-06-19T03:15:35;0.50;;;0.45;;
64295;SDS011;51082;38.236;15.432;2023-06-19T03:16:41;1.75;;;0.88;;
64295;SDS011;51082;38.236;15.432;2023-06-19T03:17:45;1.05;;;0.80;;
64295;SDS011;51082;38.236;15.432;2023-06-19T03:18:54;0.80;;;0.70;;
64295;SDS011;51082;38.236;15.432;2023-06-19T03:19:56;0.55;;;0.50;;
64295;SDS011;51082;38.236;15.432;2023-06-19T03:21:01;0.30;;;0.28;;
64295;SDS011;51082;38.236;15.432;2023-06-19T03:22:06;1.13;;;0.80;;
64295;SDS011;51082;38.236;15.432;2023-06-19T03:23:09;0.25;;;0.25;;
64295;SDS011;51082;38.236;15.432;2023-06-19T03:24:13;0.13;;;0.13;;
64295;SDS011;51082;38.236;15.432;2023-06-19T03:25:16;0.47;;;0.47;;
64295;SDS011;51082;38.236;15.432;2023-06-19T03:26:21;0.60;;;0.52;;
64295;SDS011;51082;38.236;15.432;2023-06-19T03:27:27;0.77;;;0.60;;
64295;SDS011;51082;38.236;15.432;2023-06-19T03:28:30;4.93;;;1.00;;
64295;SDS011;51082;38.236;15.432;2023-06-19T03:29:35;0.38;;;0.30;;
64295;SDS011;51082;38.236;15.432;2023-06-19T03:30:36;0.80;;;0.77;;
64295;SDS011;51082;38.236;15.432;2023-06-19T03:31:42;0.40;;;0.40;;
64295;SDS011;51082;38.236;15.432;2023-06-19T03:32:43;0.20;;;0.20;;
64295;SDS011;51082;38.236;15.432;2023-06-19T03:33:46;0.90;;;0.73;;
64295;SDS011;51082;38.236;15.432;2023-06-19T03:34:51;0.38;;;0.38;;
64295;SDS011;51082;38.236;15.432;2023-06-19T03:35:53;1.77;;;0.13;;
64295;SDS011;51082;38.236;15.432;2023-06-19T03:36:55;0.30;;;0.30;;
64295;SDS011;51082;38.236;15.432;2023-06-19T03:38:00;0.40;;;0.40;;
64295;SDS011;51082;38.236;15.432;2023-06-19T03:39:02;0.55;;;0.55;;
64295;SDS011;51082;38.236;15.432;2023-06-19T03:40:05;1.10;;;1.00;;
64295;SDS011;51082;38.236;15.432;2023-06-19T03:41:09;3.08;;;1.38;;
64295;SDS011;51082;38.236;15.432;2023-06-19T03:42:15;1.63;;;0.90;;
64295;SDS011;51082;38.236;15.432;2023-06-19T03:43:18;0.60;;;0.52;;
64295;SDS011;51082;38.236;15.432;2023-06-19T03:44:21;0.82;;;0.73;;
64295;SDS011;51082;38.236;15.432;2023-06-19T03:45:23;1.05;;;0.68;;
64295;SDS011;51082;38.236;15.432;2023-06-19T03:46:26;1.58;;;1.10;;
64295;SDS011;51082;38.236;15.432;2023-06-19T03:47:27;1.05;;;1.00;;
64295;SDS011;51082;38.236;15.432;2023-06-19T03:48:30;0.57;;;0.57;;
64295;SDS011;51082;38.236;15.432;2023-06-19T03:49:32;1.02;;;0.40;;
64295;SDS011;51082;38.236;15.432;2023-06-19T03:50:40;0.52;;;0.52;;
64295;SDS011;51082;38.236;15.432;2023-06-19T03:51:41;0.57;;;0.57;;
64295;SDS011;51082;38.236;15.432;2023-06-19T03:52:44;1.10;;;0.75;;
64295;SDS011;51082;38.236;15.432;2023-06-19T03:53:46;0.50;;;0.50;;
64295;SDS011;51082;38.236;15.432;2023-06-19T03:54:51;0.43;;;0.43;;
64295;SDS011;51082;38.236;15.432;2023-06-19T03:55:53;0.47;;;0.47;;
64295;SDS011;51082;38.236;15.432;2023-06-19T03:56:56;0.50;;;0.50;;
64295;SDS011;51082;38.236;15.432;2023-06-19T03:57:58;0.95;;;0.75;;
64295;SDS011;51082;38.236;15.432;2023-06-19T03:59:02;0.38;;;0.38;;
64295;SDS011;51082;38.236;15.432;2023-06-19T04:00:04;0.22;;;0.22;;
64295;SDS011;51082;38.236;15.432;2023-06-19T04:01:11;1.58;;;0.82;;
64295;SDS011;51082;38.236;15.432;2023-06-19T04:02:13;0.70;;;0.57;;
64295;SDS011;51082;38.236;15.432;2023-06-19T04:03:16;1.50;;;0.75;;
64295;SDS011;51082;38.236;15.432;2023-06-19T04:04:18;1.40;;;0.55;;
64295;SDS011;51082;38.236;15.432;2023-06-19T04:05:21;0.90;;;0.75;;
64295;SDS011;51082;38.236;15.432;2023-06-19T04:06:23;1.35;;;1.00;;
64295;SDS011;51082;38.236;15.432;2023-06-19T04:07:25;0.68;;;0.68;;
64295;SDS011;51082;38.236;15.432;2023-06-19T04:08:27;0.50;;;0.40;;
64295;SDS011;51082;38.236;15.432;2023-06-19T04:09:30;0.43;;;0.43;;
64295;SDS011;51082;38.236;15.432;2023-06-19T04:10:31;1.02;;;0.47;;
64295;SDS011;51082;38.236;15.432;2023-06-19T04:11:34;0.80;;;0.55;;
64295;SDS011;51082;38.236;15.432;2023-06-19T04:12:36;0.50;;;0.50;;
64295;SDS011;51082;38.236;15.432;2023-06-19T04:13:46;0.73;;;0.60;;
64295;SDS011;51082;38.236;15.432;2023-06-19T04:14:51;1.10;;;1.02;;
64295;SDS011;51082;38.236;15.432;2023-06-19T04:15:54;2.75;;;1.83;;
64295;SDS011;51082;38.236;15.432;2023-06-19T04:16:56;7.80;;;1.90;;
64295;SDS011;51082;38.236;15.432;2023-06-19T04:17:59;1.63;;;1.30;;
64295;SDS011;51082;38.236;15.432;2023-06-19T04:19:01;3.67;;;2.60;;
64295;SDS011;51082;38.236;15.432;2023-06-19T04:20:04;4.68;;;2.83;;
64295;SDS011;51082;38.236;15.432;2023-06-19T04:21:13;11.50;;;3.47;;
64295;SDS011;51082;38.236;15.432;2023-06-19T04:22:16;7.15;;;3.35;;
64295;SDS011;51082;38.236;15.432;2023-06-19T04:23:18;4.53;;;3.28;;
64295;SDS011;51082;38.236;15.432;2023-06-19T04:24:20;2.63;;;2.08;;
64295;SDS011;51082;38.236;15.432;2023-06-19T04:25:22;1.75;;;1.30;;
64295;SDS011;51082;38.236;15.432;2023-06-19T04:26:25;1.20;;;1.13;;
64295;SDS011;51082;38.236;15.432;2023-06-19T04:27:29;0.80;;;0.80;;
64295;SDS011;51082;38.236;15.432;2023-06-19T04:28:31;0.77;;;0.75;;
64295;SDS011;51082;38.236;15.432;2023-06-19T04:29:33;0.90;;;0.80;;
64295;SDS011;51082;38.236;15.432;2023-06-19T04:30:38;2.70;;;1.17;;
64295;SDS011;51082;38.236;15.432;2023-06-19T04:31:40;1.20;;;1.02;;
64295;SDS011;51082;38.236;15.432;2023-06-19T04:32:43;1.52;;;0.95;;
64295;SDS011;51082;38.236;15.432;2023-06-19T04:33:45;1.23;;;0.90;;
64295;SDS011;51082;38.236;15.432;2023-06-19T04:34:48;1.65;;;0.70;;
64295;SDS011;51082;38.236;15.432;2023-06-19T04:35:50;0.80;;;0.65;;
64295;SDS011;51082;38.236;15.432;2023-06-19T04:36:55;1.30;;;1.10;;
64295;SDS011;51082;38.236;15.432;2023-06-19T04:37:59;1.52;;;1.25;;
64295;SDS011;51082;38.236;15.432;2023-06-19T04:39:02;0.93;;;0.93;;
64295;SDS011;51082;38.236;15.432;2023-06-19T04:40:04;2.17;;;1.00;;
64295;SDS011;51082;38.236;15.432;2023-06-19T04:41:08;1.70;;;1.50;;
64295;SDS011;51082;38.236;15.432;2023-06-19T04:42:09;1.58;;;1.40;;
64295;SDS011;51082;38.236;15.432;2023-06-19T04:43:21;1.90;;;1.45;;
64295;SDS011;51082;38.236;15.432;2023-06-19T04:44:25;1.75;;;0.88;;
64295;SDS011;51082;38.236;15.432;2023-06-19T04:45:28;3.05;;;1.10;;
64295;SDS011;51082;38.236;15.432;2023-06-19T04:46:31;0.88;;;0.80;;
64295;SDS011;51082;38.236;15.432;2023-06-19T04:47:33;2.58;;;1.58;;
64295;SDS011;51082;38.236;15.432;2023-06-19T04:48:35;1.35;;;1.20;;
64295;SDS011;51082;38.236;15.432;2023-06-19T04:49:38;4.43;;;1.20;;
64295;SDS011;51082;38.236;15.432;2023-06-19T04:50:40;1.50;;;1.00;;
64295;SDS011;51082;38.236;15.432;2023-06-19T04:51:46;2.50;;;1.38;;
64295;SDS011;51082;38.236;15.432;2023-06-19T04:52:49;1.65;;;1.05;;
64295;SDS011;51082;38.236;15.432;2023-06-19T04:53:57;1.08;;;1.05;;
64295;SDS011;51082;38.236;15.432;2023-06-19T04:54:59;4.38;;;1.27;;
64295;SDS011;51082;38.236;15.432;2023-06-19T04:56:02;6.22;;;2.95;;
64295;SDS011;51082;38.236;15.432;2023-06-19T04:57:04;8.70;;;1.85;;
64295;SDS011;51082;38.236;15.432;2023-06-19T04:58:07;1.88;;;1.70;;
64295;SDS011;51082;38.236;15.432;2023-06-19T04:59:09;3.13;;;1.92;;
64295;SDS011;51082;38.236;15.432;2023-06-19T05:00:26;2.78;;;2.35;;
64295;SDS011;51082;38.236;15.432;2023-06-19T05:01:33;3.92;;;2.10;;
64295;SDS011;51082;38.236;15.432;2023-06-19T05:02:41;3.10;;;1.75;;
64295;SDS011;51082;38.236;15.432;2023-06-19T05:03:46;6.05;;;2.08;;
64295;SDS011;51082;38.236;15.432;2023-06-19T05:04:49;3.85;;;2.67;;
64295;SDS011;51082;38.236;15.432;2023-06-19T05:05:51;3.67;;;2.40;;
64295;SDS011;51082;38.236;15.432;2023-06-19T05:06:54;1.42;;;1.30;;
64295;SDS011;51082;38.236;15.432;2023-06-19T05:07:56;2.65;;;1.63;;
64295;SDS011;51082;38.236;15.432;2023-06-19T05:08:59;1.77;;;1.55;;
64295;SDS011;51082;38.236;15.432;2023-06-19T05:10:01;2.05;;;1.73;;
64295;SDS011;51082;38.236;15.432;2023-06-19T05:11:04;2.10;;;1.40;;
64295;SDS011;51082;38.236;15.432;2023-06-19T05:12:06;1.85;;;1.35;;
64295;SDS011;51082;38.236;15.432;2023-06-19T05:13:11;10.25;;;2.15;;
64295;SDS011;51082;38.236;15.432;2023-06-19T05:14:21;2.38;;;1.27;;
64295;SDS011;51082;38.236;15.432;2023-06-19T05:15:24;2.97;;;1.45;;
64295;SDS011;51082;38.236;15.432;2023-06-19T05:16:26;2.22;;;1.38;;
64295;SDS011;51082;38.236;15.432;2023-06-19T05:17:31;5.60;;;1.80;;
64295;SDS011;51082;38.236;15.432;2023-06-19T05:18:33;5.47;;;1.92;;
64295;SDS011;51082;38.236;15.432;2023-06-19T05:19:36;3.38;;;2.03;;
64295;SDS011;51082;38.236;15.432;2023-06-19T05:20:38;5.20;;;2.63;;
64295;SDS011;51082;38.236;15.432;2023-06-19T05:21:41;1.98;;;1.80;;
64295;SDS011;51082;38.236;15.432;2023-06-19T05:22:43;2.60;;;1.90;;
64295;SDS011;51082;38.236;15.432;2023-06-19T05:23:46;2.40;;;2.20;;
64295;SDS011;51082;38.236;15.432;2023-06-19T05:24:51;7.60;;;2.80;;
64295;SDS011;51082;38.236;15.432;2023-06-19T05:25:54;4.82;;;2.53;;
64295;SDS011;51082;38.236;15.432;2023-06-19T05:26:56;4.07;;;2.15;;
64295;SDS011;51082;38.236;15.432;2023-06-19T05:27:59;7.15;;;3.72;;
64295;SDS011;51082;38.236;15.432;2023-06-19T05:29:00;6.43;;;3.38;;
64295;SDS011;51082;38.236;15.432;2023-06-19T05:30:04;8.55;;;4.15;;
64295;SDS011;51082;38.236;15.432;2023-06-19T05:31:07;10.07;;;5.32;;
64295;SDS011;51082;38.236;15.432;2023-06-19T05:32:10;11.23;;;5.13;;
64295;SDS011;51082;38.236;15.432;2023-06-19T05:33:13;7.35;;;4.90;;
64295;SDS011;51082;38.236;15.432;2023-06-19T05:34:16;14.90;;;6.07;;
64295;SDS011;51082;38.236;15.432;2023-06-19T05:35:18;14.27;;;6.78;;
64295;SDS011;51082;38.236;15.432;2023-06-19T05:36:22;21.23;;;7.65;;
64295;SDS011;51082;38.236;15.432;2023-06-19T05:37:24;18.00;;;8.00;;
64295;SDS011;51082;38.236;15.432;2023-06-19T05:38:27;15.50;;;8.63;;
64295;SDS011;51082;38.236;15.432;2023-06-19T05:39:31;30.92;;;11.90;;
64295;SDS011;51082;38.236;15.432;2023-06-19T05:40:33;23.75;;;11.95;;
64295;SDS011;51082;38.236;15.432;2023-06-19T05:41:36;22.88;;;10.63;;
64295;SDS011;51082;38.236;15.432;2023-06-19T05:42:37;25.15;;;11.85;;
64295;SDS011;51082;38.236;15.432;2023-06-19T05:43:41;14.35;;;8.23;;
64295;SDS011;51082;38.236;15.432;2023-06-19T05:44:43;17.42;;;9.00;;
64295;SDS011;51082;38.236;15.432;2023-06-19T05:45:46;17.58;;;8.75;;
64295;SDS011;51082;38.236;15.432;2023-06-19T05:46:59;13.85;;;6.63;;
64295;SDS011;51082;38.236;15.432;2023-06-19T05:48:04;10.43;;;5.43;;
64295;SDS011;51082;38.236;15.432;2023-06-19T05:49:08;12.63;;;6.15;;
64295;SDS011;51082;38.236;15.432;2023-06-19T05:50:10;8.63;;;4.38;;
64295;SDS011;51082;38.236;15.432;2023-06-19T05:51:14;8.43;;;5.25;;
64295;SDS011;51082;38.236;15.432;2023-06-19T05:52:16;8.57;;;4.63;;
64295;SDS011;51082;38.236;15.432;2023-06-19T05:53:21;15.20;;;6.90;;
64295;SDS011;51082;38.236;15.432;2023-06-19T05:54:24;8.38;;;5.60;;
64295;SDS011;51082;38.236;15.432;2023-06-19T05:55:26;9.70;;;5.25;;
64295;SDS011;51082;38.236;15.432;2023-06-19T05:56:29;8.13;;;4.50;;
64295;SDS011;51082;38.236;15.432;2023-06-19T05:57:33;10.85;;;5.13;;
64295;SDS011;51082;38.236;15.432;2023-06-19T05:58:36;10.50;;;5.00;;
64295;SDS011;51082;38.236;15.432;2023-06-19T05:59:38;11.63;;;5.88;;
64295;SDS011;51082;38.236;15.432;2023-06-19T06:00:42;12.68;;;6.90;;
64295;SDS011;51082;38.236;15.432;2023-06-19T06:01:44;14.73;;;6.80;;
64295;SDS011;51082;38.236;15.432;2023-06-19T06:02:46;16.63;;;5.78;;
64295;SDS011;51082;38.236;15.432;2023-06-19T06:03:52;11.23;;;6.07;;
64295;SDS011;51082;38.236;15.432;2023-06-19T06:04:56;12.35;;;6.57;;
64295;SDS011;51082;38.236;15.432;2023-06-19T06:05:58;13.43;;;6.05;;
64295;SDS011;51082;38.236;15.432;2023-06-19T06:07:05;10.57;;;5.97;;
64295;SDS011;51082;38.236;15.432;2023-06-19T06:08:09;11.95;;;6.25;;
64295;SDS011;51082;38.236;15.432;2023-06-19T06:09:14;14.13;;;5.53;;
64295;SDS011;51082;38.236;15.432;2023-06-19T06:10:17;11.82;;;5.75;;
64295;SDS011;51082;38.236;15.432;2023-06-19T06:11:23;14.13;;;5.95;;
64295;SDS011;51082;38.236;15.432;2023-06-19T06:12:25;11.98;;;5.70;;
64295;SDS011;51082;38.236;15.432;2023-06-19T06:13:28;9.52;;;5.28;;
64295;SDS011;51082;38.236;15.432;2023-06-19T06:14:33;14.18;;;7.20;;
64295;SDS011;51082;38.236;15.432;2023-06-19T06:15:36;11.40;;;6.07;;
64295;SDS011;51082;38.236;15.432;2023-06-19T06:16:38;11.85;;;4.28;;
64295;SDS011;51082;38.236;15.432;2023-06-19T06:17:40;9.25;;;4.53;;
64295;SDS011;51082;38.236;15.432;2023-06-19T06:18:46;5.88;;;3.50;;
64295;SDS011;51082;38.236;15.432;2023-06-19T06:19:52;7.93;;;3.58;;
64295;SDS011;51082;38.236;15.432;2023-06-19T06:20:55;5.00;;;3.17;;
64295;SDS011;51082;38.236;15.432;2023-06-19T06:22:00;5.85;;;2.97;;
64295;SDS011;51082;38.236;15.432;2023-06-19T06:23:08;5.03;;;3.30;;